Mahlon Sweet Field
KEUG : now visible

Airfield :











YOU CAN JOIN US ON...

 
LOGIN :

Register | Disclaimer

   EN    FR    IT 

 









Legend :    VFR   Marginal VFR   IFR   Intensive IFR   Very Intensive IFR
Visi :
Ceiling :
>= 8 km
>= 3000ft
5 to 8 km
1000 to 3000 ft
1500m to 5 km
500 to 1000 ft
800 to 1500m
200 to 500 ft
< 800m
< 200 ft
Symbols :   Thunderstorms  Fog  Heavy snow  Heavy precipitations  Wind > 20 kt







- Airport Elevation : 374 ft
- IATA code : EUG


KEUG - Mahlon Sweet Field

CURRENT METAR :
  • 211654Z 00000KT 10SM FEW007 FEW015 SCT025 17/12 A3016 RMK AO2 SLP212 T01720122

EXPIRED METARs :
  • 211642Z 00000KT 10SM FEW007 FEW015 SCT026 16/12 A3016 RMK AO2 T01610117
  • 211554Z 00000KT 10SM FEW004 FEW012 BKN026 14/11 A3017 RMK AO2 SLP216 T01390111
  • 211454Z 19004KT 10SM FEW006 FEW014 BKN028 13/11 A3016 RMK AO2 SLP214 T01280111 55001

TAF KEUG
Valid from the 21 at 18:00 until the 22 at 18:00 UTC


211725Z 2118/2218 VRB03KT P6SM SCT020 BKN035
FM212000 33005KT P6SM SCT250
FM220400 23004KT P6SM SCT200
FM221200 19007KT 6SM -RA BR SCT015 OVC025
No reported NOTAMs for that airfield.



MET'MAP, your aeronautical weather chart ! - Copyright ORBIFLY December 2007 - Disclaimer

ORBIFLY MET'MAP TEAM :

Programming & Development : Alexandra Zaïnal
Concept & Development : Baudouin d'Aumeries
Co-Development & Prog : Marc-Olivier Méhu
Technical & hardware support : Manuel Goepfert

Contact : metmap@orbifly.com




SOURCES & CREDITS :

   NOAA       Earth
Advisory